Time;durP1;ratioP1;P1;durP2;ratioP2;P2;SDS_P1;SDS_P2;PMS_P1;PMS_P2;Temp;Humidity;BMP_temperature;BMP_pressure;BME280_temperature;BME280_humidity;BME280_pressure;Samples;Min_cycle;Max_cycle;Signal;HPM_P1;HPM_P2
2022/11/14 00:02:03;;;;;;;19.07;9.73;;;4.00;1.00;;;;;;5069462;28;20737;-52
2022/11/14 00:04:28;;;;;;;20.33;10.05;;;4.50;1.00;;;;;;5070171;28;20391;-51
2022/11/14 00:06:54;;;;;;;22.67;10.10;;;4.60;1.00;;;;;;5069699;28;20411;-51
2022/11/14 00:09:23;;;;;;;19.90;10.23;;;3.70;1.00;;;;;;5070939;28;20930;-51
2022/11/14 00:11:48;;;;;;;17.60;8.75;;;4.10;1.00;;;;;;5069397;28;20379;-52
2022/11/14 00:14:14;;;;;;;19.05;9.27;;;4.30;1.00;;;;;;5058103;28;21699;-52
2022/11/14 00:16:40;;;;;;;17.63;9.23;;;3.70;1.00;;;;;;5070439;28;20432;-52
2022/11/14 00:19:05;;;;;;;21.77;9.45;;;3.60;1.00;;;;;;5069480;28;20420;-52
2022/11/14 00:21:31;;;;;;;22.73;9.90;;;3.60;1.00;;;;;;5070323;28;20383;-52
2022/11/14 00:23:56;;;;;;;21.17;9.90;;;3.60;1.00;;;;;;5069267;28;20729;-52
2022/11/14 00:26:22;;;;;;;17.67;8.50;;;3.60;1.00;;;;;;5069679;28;20408;-51
2022/11/14 00:28:47;;;;;;;19.55;9.75;;;4.50;1.00;;;;;;5069126;28;20756;-57
2022/11/14 00:31:13;;;;;;;19.37;9.70;;;3.60;1.00;;;;;;5070104;28;20853;-51
2022/11/14 00:33:38;;;;;;;20.10;9.45;;;3.50;1.00;;;;;;5069568;28;20400;-52
2022/11/14 00:36:04;;;;;;;19.70;9.00;;;3.60;1.00;;;;;;5069542;28;20380;-52
2022/11/14 00:38:30;;;;;;;19.58;9.02;;;3.40;1.00;;;;;;5070657;28;20414;-51
2022/11/14 00:40:55;;;;;;;20.00;9.13;;;3.40;1.00;;;;;;5068881;28;20441;-52
2022/11/14 00:43:21;;;;;;;20.73;8.83;;;3.30;1.00;;;;;;5070235;28;20380;-52
2022/11/14 00:45:47;;;;;;;19.17;8.88;;;3.30;1.00;;;;;;5069222;28;20383;-53
2022/11/14 00:48:13;;;;;;;17.20;8.32;;;3.30;1.00;;;;;;5069574;28;20865;-51
2022/11/14 00:50:39;;;;;;;17.70;8.68;;;4.40;1.00;;;;;;5069786;28;20388;-52
2022/11/14 00:53:06;;;;;;;20.17;9.32;;;3.30;1.00;;;;;;5068673;28;20444;-52
2022/11/14 00:55:31;;;;;;;17.75;9.15;;;4.00;1.00;;;;;;5069962;28;20386;-52
2022/11/14 00:57:57;;;;;;;16.58;8.20;;;3.20;1.00;;;;;;5069456;28;20415;-52
2022/11/14 01:00:23;;;;;;;17.47;8.93;;;3.20;1.00;;;;;;5069920;28;20384;-51
2022/11/14 01:02:48;;;;;;;22.65;9.68;;;3.20;1.00;;;;;;5069804;28;20976;-53
2022/11/14 01:05:14;;;;;;;20.35;9.82;;;4.20;1.00;;;;;;5069714;28;20399;-51
2022/11/14 01:07:39;;;;;;;20.30;9.07;;;3.10;1.00;;;;;;5069496;28;20399;-51
2022/11/14 01:10:06;;;;;;;16.52;8.20;;;3.00;1.00;;;;;;5069347;28;20471;-52
2022/11/14 01:12:33;;;;;;;19.02;9.02;;;3.10;1.00;;;;;;5069164;28;20380;-52
2022/11/14 01:14:59;;;;;;;17.75;8.75;;;3.10;1.00;;;;;;5068272;28;20390;-52
2022/11/14 01:17:27;;;;;;;19.80;8.95;;;3.10;1.00;;;;;;5069460;28;20372;-52
2022/11/14 01:19:53;;;;;;;17.50;8.32;;;3.10;1.00;;;;;;5068619;28;20379;-53
2022/11/14 01:22:19;;;;;;;18.13;8.50;;;3.10;1.00;;;;;;5069430;28;20376;-51
2022/11/14 01:24:44;;;;;;;21.50;9.18;;;3.20;1.00;;;;;;5069551;28;20760;-51
2022/11/14 01:27:10;;;;;;;19.33;9.17;;;3.70;1.00;;;;;;5068210;28;20403;-51
2022/11/14 01:29:36;;;;;;;22.03;10.07;;;3.20;1.00;;;;;;5059328;28;20825;-52
2022/11/14 01:32:01;;;;;;;17.00;8.33;;;3.10;1.00;;;;;;5068736;28;20406;-52
2022/11/14 01:34:28;;;;;;;18.30;8.23;;;3.10;1.00;;;;;;5069729;28;20443;-53
2022/11/14 01:36:54;;;;;;;16.65;7.25;;;3.10;1.00;;;;;;5068939;28;20467;-51
2022/11/14 01:39:19;;;;;;;18.87;8.60;;;3.00;1.00;;;;;;5069223;28;20868;-52
2022/11/14 01:41:45;;;;;;;16.27;7.87;;;3.00;1.00;;;;;;5068987;28;20375;-57
2022/11/14 01:44:16;;;;;;;18.38;9.30;;;3.20;1.00;;;;;;5068664;28;20384;-51
2022/11/14 01:46:46;;;;;;;19.70;9.57;;;3.20;1.00;;;;;;5066256;28;20407;-51
2022/11/14 01:49:28;;;;;;;18.55;8.52;;;4.40;1.00;;;;;;5069247;28;20383;-51
2022/11/14 01:52:00;;;;;;;22.23;10.38;;;3.40;1.00;;;;;;5067916;28;20376;-51
2022/11/14 01:54:31;;;;;;;19.48;9.25;;;3.40;1.00;;;;;;5068691;28;20433;-51
2022/11/14 01:56:59;;;;;;;22.70;10.20;;;4.30;1.00;;;;;;5067688;28;20392;-51
2022/11/14 01:59:30;;;;;;;18.63;9.00;;;3.70;1.00;;;;;;5068690;28;20740;-52
2022/11/14 02:02:00;;;;;;;21.83;9.43;;;3.70;1.00;;;;;;5067911;28;20407;-52
2022/11/14 02:04:34;;;;;;;18.27;9.20;;;4.00;1.00;;;;;;5068401;28;20379;-54
2022/11/14 02:07:02;;;;;;;18.98;9.07;;;4.50;1.00;;;;;;5068212;28;20885;-52
2022/11/14 02:09:30;;;;;;;18.67;9.63;;;3.90;1.00;;;;;;5069154;28;20387;-52
2022/11/14 02:11:59;;;;;;;19.38;9.32;;;3.90;1.00;;;;;;5068040;28;20384;-52
2022/11/14 02:14:26;;;;;;;19.03;9.70;;;3.90;1.00;;;;;;5068838;28;20932;-51
2022/11/14 02:16:53;;;;;;;19.58;9.82;;;4.10;1.00;;;;;;5067529;28;20746;-52
2022/11/14 02:19:19;;;;;;;19.58;9.15;;;4.10;1.00;;;;;;5068363;28;20466;-53
2022/11/14 02:21:44;;;;;;;20.17;9.00;;;4.10;1.00;;;;;;5068882;28;20492;-52
2022/11/14 02:24:11;;;;;;;22.77;8.80;;;4.20;1.00;;;;;;5049829;28;20400;-51
2022/11/14 02:26:37;;;;;;;20.02;9.85;;;4.20;1.00;;;;;;5072210;28;20411;-53
2022/11/14 02:29:04;;;;;;;20.45;9.57;;;4.20;1.00;;;;;;5071555;28;20772;-52
2022/11/14 02:31:30;;;;;;;19.05;9.30;;;4.10;1.00;;;;;;5072077;28;20441;-52
2022/11/14 02:33:56;;;;;;;22.50;10.95;;;4.20;1.00;;;;;;5071484;28;20877;-52
2022/11/14 02:36:21;;;;;;;18.70;10.00;;;5.00;1.00;;;;;;5072070;28;20405;-52
2022/11/14 02:38:47;;;;;;;17.85;9.10;;;4.20;1.00;;;;;;5071796;28;20433;-57
2022/11/14 02:41:13;;;;;;;22.90;11.35;;;5.40;1.00;;;;;;5072620;28;20376;-51
2022/11/14 02:43:38;;;;;;;20.33;10.77;;;4.20;1.00;;;;;;5071581;28;20379;-52
2022/11/14 02:46:04;;;;;;;17.48;10.02;;;4.20;1.00;;;;;;5071244;28;20384;-51
2022/11/14 02:48:29;;;;;;;21.03;10.40;;;4.30;1.00;;;;;;5071631;28;20380;-51
2022/11/14 02:50:55;;;;;;;21.30;10.40;;;4.30;1.00;;;;;;5071210;28;20561;-52
2022/11/14 02:53:21;;;;;;;19.67;10.60;;;4.30;1.00;;;;;;5071434;28;20379;-52
2022/11/14 02:55:46;;;;;;;21.70;10.73;;;5.20;1.00;;;;;;5071675;28;20432;-57
2022/11/14 02:58:12;;;;;;;20.55;10.77;;;3.80;1.00;;;;;;5071086;28;20749;-52
2022/11/14 03:00:37;;;;;;;18.97;10.00;;;4.40;1.00;;;;;;5071433;28;20387;-52
2022/11/14 03:03:03;;;;;;;18.40;9.88;;;4.40;1.00;;;;;;5071047;28;20388;-51
2022/11/14 03:05:29;;;;;;;21.13;9.10;;;4.60;1.00;;;;;;5071634;28;20498;-52
2022/11/14 03:07:55;;;;;;;20.58;9.95;;;4.40;1.00;;;;;;5070890;28;20407;-52
2022/11/14 03:10:21;;;;;;;24.48;10.32;;;5.60;1.00;;;;;;5068675;28;20462;-52
2022/11/14 03:12:47;;;;;;;21.63;9.80;;;4.30;1.00;;;;;;5071403;28;20770;-58
2022/11/14 03:15:13;;;;;;;17.58;8.32;;;4.20;1.00;;;;;;5071880;28;20395;-52
2022/11/14 03:17:38;;;;;;;19.05;9.20;;;4.10;1.00;;;;;;5071360;28;20382;-51
2022/11/14 03:20:05;;;;;;;20.70;9.10;;;4.00;1.00;;;;;;5052529;28;20395;-51
2022/11/14 03:22:30;;;;;;;19.48;9.93;;;3.90;1.00;;;;;;5071308;28;20376;-54
2022/11/14 03:24:56;;;;;;;18.20;9.57;;;3.90;1.00;;;;;;5070441;28;20382;-52
2022/11/14 03:27:21;;;;;;;19.77;9.25;;;3.80;1.00;;;;;;5071238;28;20408;-51
2022/11/14 03:29:48;;;;;;;19.90;9.07;;;3.80;1.00;;;;;;5071028;28;20387;-55
2022/11/14 03:32:14;;;;;;;22.08;9.98;;;3.80;1.00;;;;;;5070771;28;20434;-51
2022/11/14 03:34:39;;;;;;;20.10;9.73;;;3.80;1.00;;;;;;5070699;28;20411;-52
2022/11/14 03:37:05;;;;;;;19.70;9.10;;;3.80;1.00;;;;;;5070135;28;20384;-53
2022/11/14 03:39:30;;;;;;;21.77;9.95;;;5.00;1.00;;;;;;5071075;28;20932;-51
2022/11/14 03:41:56;;;;;;;18.53;8.60;;;3.70;1.00;;;;;;5070850;28;20390;-52
2022/11/14 03:44:22;;;;;;;19.52;9.00;;;3.70;1.00;;;;;;5071156;28;20372;-51
2022/11/14 03:46:47;;;;;;;16.40;8.67;;;3.60;1.00;;;;;;5070929;28;20404;-51
2022/11/14 03:49:13;;;;;;;20.05;8.90;;;3.50;1.00;;;;;;5069673;28;20465;-51
2022/11/14 03:51:38;;;;;;;20.00;8.93;;;3.50;1.00;;;;;;5070500;28;20842;-52
2022/11/14 03:54:04;;;;;;;20.17;9.30;;;3.50;1.00;;;;;;5060173;28;20399;-52
2022/11/14 03:56:30;;;;;;;20.92;9.38;;;3.50;1.00;;;;;;5070921;28;20384;-52
2022/11/14 03:58:55;;;;;;;18.13;8.57;;;3.50;1.00;;;;;;5070360;28;20411;-52
2022/11/14 04:01:21;;;;;;;23.00;9.13;;;3.50;1.00;;;;;;5067819;28;20376;-52
2022/11/14 04:03:46;;;;;;;19.10;8.63;;;3.60;1.00;;;;;;5070478;28;20426;-51
2022/11/14 04:06:12;;;;;;;14.68;7.57;;;3.60;1.00;;;;;;5069762;28;20446;-51
2022/11/14 04:08:40;;;;;;;18.77;8.50;;;3.60;1.00;;;;;;5069981;28;20388;-52
2022/11/14 04:11:06;;;;;;;19.10;8.80;;;3.70;1.00;;;;;;5069953;28;20383;-51
2022/11/14 04:13:31;;;;;;;18.10;8.07;;;3.60;1.00;;;;;;5069928;28;20871;-52
2022/11/14 04:15:58;;;;;;;18.20;7.80;;;3.60;1.00;;;;;;5070133;28;20384;-51
2022/11/14 04:18:24;;;;;;;19.50;8.90;;;3.70;1.00;;;;;;5070592;28;20423;-52
2022/11/14 04:20:50;;;;;;;20.43;9.30;;;3.70;1.00;;;;;;5070125;28;20490;-57
2022/11/14 04:23:16;;;;;;;17.92;8.10;;;3.70;1.00;;;;;;5070477;28;20433;-51
2022/11/14 04:25:43;;;;;;;19.95;9.25;;;4.00;1.00;;;;;;5070096;28;20387;-51
2022/11/14 04:28:09;;;;;;;21.48;9.07;;;3.50;1.00;;;;;;5069685;28;20454;-52
2022/11/14 04:30:35;;;;;;;18.20;8.43;;;3.50;1.00;;;;;;5068874;28;20790;-52
2022/11/14 04:33:01;;;;;;;17.40;8.63;;;3.50;1.00;;;;;;5068958;28;20408;-52
2022/11/14 04:35:26;;;;;;;19.23;8.63;;;3.40;1.00;;;;;;5070146;28;20873;-52
2022/11/14 04:37:52;;;;;;;17.27;8.20;;;3.30;1.00;;;;;;5069672;28;20470;-52
2022/11/14 04:40:17;;;;;;;18.42;8.23;;;3.30;1.00;;;;;;5068125;28;20414;-52
2022/11/14 04:42:43;;;;;;;17.70;9.23;;;3.30;1.00;;;;;;5070687;28;20364;-51
2022/11/14 04:45:09;;;;;;;46.35;17.88;;;3.70;1.00;;;;;;5069674;28;20463;-51
2022/11/14 04:47:34;;;;;;;38.45;15.35;;;3.30;1.00;;;;;;5070403;28;20710;-52
2022/11/14 04:50:00;;;;;;;24.77;11.97;;;3.40;1.00;;;;;;5069116;28;20384;-52
2022/11/14 04:52:26;;;;;;;24.77;12.60;;;3.40;1.00;;;;;;5063009;28;20399;-52
2022/11/14 04:54:51;;;;;;;22.58;11.65;;;3.40;1.00;;;;;;5069653;28;20883;-57
2022/11/14 04:57:17;;;;;;;23.00;9.77;;;3.60;1.00;;;;;;5069192;28;20386;-51
2022/11/14 04:59:43;;;;;;;20.67;10.63;;;3.30;1.00;;;;;;5070226;28;20379;-54
2022/11/14 05:02:09;;;;;;;24.40;11.23;;;3.40;1.00;;;;;;5069163;28;20785;-52
2022/11/14 05:04:34;;;;;;;21.73;10.57;;;3.30;1.00;;;;;;5070180;28;20416;-51
2022/11/14 05:07:00;;;;;;;21.90;11.60;;;3.30;1.00;;;;;;5068679;28;20415;-52
2022/11/14 05:09:25;;;;;;;20.38;10.20;;;3.10;1.00;;;;;;5069385;28;20386;-51
2022/11/14 05:11:51;;;;;;;22.40;10.90;;;3.00;1.00;;;;;;5069559;28;20384;-52
2022/11/14 05:14:17;;;;;;;28.05;11.95;;;3.00;1.00;;;;;;5069647;28;20376;-51
2022/11/14 05:16:42;;;;;;;28.38;12.43;;;3.00;1.00;;;;;;5069276;28;20395;-51
2022/11/14 05:19:08;;;;;;;28.80;13.80;;;3.00;1.00;;;;;;5065488;28;20853;-51
2022/11/14 05:21:34;;;;;;;24.88;12.00;;;3.20;15.10;;;;;;5069253;28;20383;-52
2022/11/14 05:23:59;;;;;;;35.37;17.10;;;3.20;14.80;;;;;;5068378;28;20388;-52
2022/11/14 05:26:25;;;;;;;31.23;15.47;;;3.30;3.40;;;;;;5069089;28;20754;-52
2022/11/14 05:28:50;;;;;;;30.52;15.80;;;3.30;1.00;;;;;;5068967;28;20741;-58
2022/11/14 05:31:19;;;;;;;24.70;12.97;;;3.60;1.00;;;;;;5069915;28;20429;-52
2022/11/14 05:33:45;;;;;;;25.25;11.43;;;3.20;1.00;;;;;;5069615;28;20417;-51
2022/11/14 05:36:13;;;;;;;26.13;12.73;;;3.10;1.00;;;;;;5068963;28;20391;-51
2022/11/14 05:38:40;;;;;;;25.58;10.85;;;3.20;1.00;;;;;;5069546;28;20506;-52
2022/11/14 05:41:07;;;;;;;24.30;12.00;;;4.30;1.00;;;;;;5067774;28;20394;-54
2022/11/14 05:43:33;;;;;;;25.13;10.90;;;2.90;1.00;;;;;;5072052;28;20374;-52
2022/11/14 05:46:04;;;;;;;20.53;10.37;;;3.00;1.00;;;;;;5074621;28;20487;-51
2022/11/14 05:48:30;;;;;;;24.33;10.73;;;3.10;1.00;;;;;;5065000;28;20487;-52
2022/11/14 05:51:01;;;;;;;23.15;11.43;;;3.10;1.00;;;;;;5066560;28;20877;-51
2022/11/14 05:53:28;;;;;;;22.77;10.50;;;3.10;1.00;;;;;;5089455;28;20465;-52
2022/11/14 05:55:54;;;;;;;20.77;10.13;;;3.10;1.00;;;;;;5078243;28;20518;-58
2022/11/14 05:58:20;;;;;;;24.57;11.80;;;3.10;1.00;;;;;;5084126;28;20999;-51
2022/11/14 06:00:47;;;;;;;19.70;10.65;;;3.10;1.00;;;;;;5069863;28;20454;-52
2022/11/14 06:03:13;;;;;;;19.15;10.00;;;3.10;1.00;;;;;;5066468;28;20742;-52
2022/11/14 06:05:39;;;;;;;20.98;10.73;;;4.10;1.00;;;;;;5062432;28;20407;-51
2022/11/14 06:08:05;;;;;;;20.70;9.77;;;3.00;1.00;;;;;;5065088;28;20403;-51
2022/11/14 06:10:33;;;;;;;22.33;9.52;;;3.00;1.00;;;;;;5089224;28;20754;-52
2022/11/14 06:12:58;;;;;;;21.27;9.85;;;3.00;1.00;;;;;;5068393;28;20714;-52
2022/11/14 06:15:24;;;;;;;19.60;9.63;;;3.10;1.00;;;;;;5066320;28;20445;-52
2022/11/14 06:17:52;;;;;;;21.40;10.70;;;3.00;1.00;;;;;;5063934;28;20723;-58
2022/11/14 06:20:17;;;;;;;20.73;9.38;;;3.00;1.00;;;;;;5064661;28;20381;-51
2022/11/14 06:22:43;;;;;;;19.80;9.27;;;3.10;1.00;;;;;;5060556;28;20920;-52
2022/11/14 06:25:09;;;;;;;19.90;9.90;;;3.10;1.00;;;;;;5051926;28;20928;-51
2022/11/14 06:27:34;;;;;;;21.25;10.50;;;3.10;1.00;;;;;;5052582;28;20436;-52
2022/11/14 06:30:00;;;;;;;19.05;10.05;;;3.20;1.00;;;;;;5051991;28;20854;-52
2022/11/14 06:32:26;;;;;;;21.17;10.30;;;3.30;1.00;;;;;;5052481;28;20381;-52
2022/11/14 06:34:51;;;;;;;19.45;9.18;;;3.30;1.00;;;;;;5052250;28;20663;-52
2022/11/14 06:37:17;;;;;;;23.00;10.33;;;3.50;1.00;;;;;;5034592;28;20401;-55
2022/11/14 06:39:42;;;;;;;18.90;9.65;;;3.30;1.00;;;;;;5052471;28;20460;-51
2022/11/14 06:42:08;;;;;;;17.77;8.97;;;3.30;9.10;;;;;;5051675;28;20403;-51
2022/11/14 06:44:33;;;;;;;19.10;9.70;;;3.40;10.70;;;;;;5052988;28;20369;-52
2022/11/14 06:46:59;;;;;;;21.90;10.13;;;3.40;16.30;;;;;;5052132;28;20405;-52
2022/11/14 06:49:26;;;;;;;19.47;8.83;;;3.50;71.20;;;;;;5052253;28;20382;-52
2022/11/14 06:51:52;;;;;;;17.05;8.80;;;3.70;42.50;;;;;;5052124;28;20381;-52
2022/11/14 06:54:18;;;;;;;21.58;9.50;;;2.60;19.90;;;;;;5053097;28;20378;-51
2022/11/14 06:56:44;;;;;;;20.38;9.80;;;4.00;31.10;;;;;;5051559;28;20742;-51
2022/11/14 06:59:09;;;;;;;21.37;10.33;;;4.10;18.10;;;;;;5051851;28;20370;-51
2022/11/14 07:01:35;;;;;;;18.07;9.47;;;5.30;1.00;;;;;;5052342;28;20839;-51
2022/11/14 07:04:01;;;;;;;20.15;9.88;;;4.70;1.00;;;;;;5056314;28;20755;-52
2022/11/14 07:06:28;;;;;;;18.50;8.97;;;4.70;1.00;;;;;;5066248;28;20457;-52
2022/11/14 07:08:55;;;;;;;20.80;9.80;;;4.80;1.00;;;;;;5071659;28;20458;-52
2022/11/14 07:11:26;;;;;;;22.17;11.60;;;5.30;1.00;;;;;;5070628;28;20399;-51
2022/11/14 07:13:54;;;;;;;19.23;9.60;;;6.00;1.00;;;;;;5071126;28;20386;-54
2022/11/14 07:16:22;;;;;;;19.08;9.18;;;5.70;1.00;;;;;;5071875;28;20474;-52
2022/11/14 07:18:48;;;;;;;18.60;9.27;;;4.90;1.00;;;;;;5071694;28;20483;-51
2022/11/14 07:21:13;;;;;;;19.33;9.40;;;4.90;1.00;;;;;;5070686;28;20912;-51
2022/11/14 07:23:40;;;;;;;21.57;9.30;;;4.90;1.00;;;;;;5071582;28;20904;-51
2022/11/14 07:26:08;;;;;;;19.25;9.57;;;4.60;1.00;;;;;;5070823;28;20409;-52
2022/11/14 07:28:35;;;;;;;16.92;8.38;;;4.70;1.00;;;;;;5071436;28;20387;-52
2022/11/14 07:31:06;;;;;;;22.92;8.95;;;4.70;1.00;;;;;;5070593;28;20380;-52
2022/11/14 07:33:32;;;;;;;17.55;8.85;;;4.70;1.00;;;;;;5071615;28;20404;-52
2022/11/14 07:35:58;;;;;;;19.65;8.95;;;4.80;1.00;;;;;;5070745;28;20877;-52
2022/11/14 07:38:24;;;;;;;17.00;8.60;;;4.90;1.00;;;;;;5071159;28;20380;-52
2022/11/14 07:40:54;;;;;;;15.65;8.40;;;4.90;1.00;;;;;;5070879;28;20398;-53
2022/11/14 07:43:20;;;;;;;18.00;8.60;;;4.90;1.00;;;;;;5070942;28;20386;-51
2022/11/14 07:45:45;;;;;;;18.37;8.67;;;5.00;1.00;;;;;;5071614;28;20459;-51
2022/11/14 07:48:11;;;;;;;17.58;8.30;;;5.70;1.00;;;;;;5070599;28;20916;-51
2022/11/14 07:50:37;;;;;;;16.90;7.97;;;6.00;1.00;;;;;;5071017;28;20376;-51
2022/11/14 07:53:02;;;;;;;15.93;8.30;;;5.60;1.00;;;;;;5070149;28;20384;-49
2022/11/14 07:55:28;;;;;;;19.60;8.05;;;5.40;1.00;;;;;;5071212;28;20383;-49
2022/11/14 07:57:57;;;;;;;18.93;7.90;;;5.50;1.00;;;;;;5070435;28;20474;-54
2022/11/14 08:00:23;;;;;;;16.83;8.20;;;5.40;1.00;;;;;;5053488;28;20388;-49
2022/11/14 08:02:48;;;;;;;16.83;7.88;;;5.50;1.00;;;;;;5070438;28;20742;-49
2022/11/14 08:05:14;;;;;;;17.00;8.00;;;6.40;1.00;;;;;;5069892;28;20384;-49
2022/11/14 08:07:40;;;;;;;16.15;8.63;;;5.70;1.00;;;;;;5070608;28;20400;-49
2022/11/14 08:10:07;;;;;;;18.50;8.80;;;5.90;99.90;;;;;;5069975;28;20388;-49
2022/11/14 08:12:32;;;;;;;16.85;8.77;;;5.70;99.90;;;;;;5070302;28;20384;-49
2022/11/14 08:14:58;;;;;;;19.63;10.27;;;5.60;99.90;;;;;;5070256;28;20872;-49
2022/11/14 08:17:23;;;;;;;19.10;9.50;;;5.60;1.00;;;;;;5070499;28;20745;-49
2022/11/14 08:19:49;;;;;;;19.67;9.07;;;6.20;99.90;;;;;;5070592;28;20367;-50
2022/11/14 08:22:15;;;;;;;19.90;9.90;;;5.70;1.00;;;;;;5069303;28;20457;-50
2022/11/14 08:24:40;;;;;;;18.15;9.23;;;5.70;1.00;;;;;;5070517;28;20376;-49
2022/11/14 08:27:06;;;;;;;22.13;10.23;;;5.70;99.90;;;;;;5070002;28;20825;-49
2022/11/14 08:29:31;;;;;;;16.65;9.10;;;6.30;1.00;;;;;;5070342;28;20388;-49
2022/11/14 08:31:57;;;;;;;19.90;9.60;;;5.80;99.90;;;;;;5069445;28;20388;-51
2022/11/14 08:34:24;;;;;;;19.83;9.45;;;6.50;1.00;;;;;;5051547;28;20408;-49
2022/11/14 08:36:50;;;;;;;17.08;8.80;;;5.80;1.00;;;;;;5070375;28;20388;-49
2022/11/14 08:39:15;;;;;;;21.60;9.90;;;5.70;1.00;;;;;;5069568;28;20490;-49
2022/11/14 08:41:41;;;;;;;17.67;8.77;;;6.00;1.00;;;;;;5070049;28;20390;-52
2022/11/14 08:44:06;;;;;;;18.07;9.30;;;5.60;1.00;;;;;;5069611;28;20372;-51
2022/11/14 08:46:32;;;;;;;19.98;9.05;;;6.80;1.00;;;;;;5070119;28;20419;-51
2022/11/14 08:48:57;;;;;;;18.10;8.93;;;6.60;1.00;;;;;;5069385;28;20384;-50
2022/11/14 08:51:23;;;;;;;14.90;8.18;;;5.90;1.00;;;;;;5069760;28;20399;-49
2022/11/14 08:53:51;;;;;;;19.07;8.50;;;6.60;1.00;;;;;;5070081;28;20403;-49
2022/11/14 08:56:17;;;;;;;18.60;7.90;;;6.20;1.00;;;;;;5069392;28;20371;-51
2022/11/14 08:58:42;;;;;;;13.60;6.50;;;6.40;1.00;;;;;;5069652;28;20737;-49
2022/11/14 09:01:08;;;;;;;10.33;4.67;;;7.20;1.00;;;;;;5069674;28;20379;-49
2022/11/14 09:03:34;;;;;;;8.85;3.17;;;7.00;66.40;;;;;;5069567;28;20380;-50
2022/11/14 09:06:01;;;;;;;8.15;2.15;;;7.60;99.90;;;;;;5069466;28;20392;-50
2022/11/14 09:08:27;;;;;;;5.32;1.50;;;8.10;99.90;;;;;;5069563;28;20395;-50
2022/11/14 09:10:53;;;;;;;5.90;2.28;;;8.50;99.90;;;;;;5069568;28;20825;-51
2022/11/14 09:13:19;;;;;;;5.10;1.37;;;8.70;99.90;;;;;;5069080;28;20466;-51
2022/11/14 09:15:44;;;;;;;5.47;1.35;;;8.90;99.90;;;;;;5070263;28;20465;-50
2022/11/14 09:18:10;;;;;;;5.13;1.30;;;9.00;99.90;;;;;;5069399;28;20471;-50
2022/11/14 09:20:37;;;;;;;5.30;1.70;;;9.20;99.90;;;;;;5069668;28;21025;-50
2022/11/14 09:23:03;;;;;;;6.88;1.50;;;9.20;99.90;;;;;;5050943;28;20784;-50
2022/11/14 09:25:29;;;;;;;6.22;1.65;;;9.30;93.20;;;;;;5070245;28;20713;-50
2022/11/14 09:27:55;;;;;;;5.93;1.63;;;9.30;80.00;;;;;;5069555;28;20411;-52
2022/11/14 09:30:24;;;;;;;5.97;1.80;;;9.30;78.70;;;;;;5069915;28;20458;-52
2022/11/14 09:32:50;;;;;;;7.10;1.60;;;9.40;43.30;;;;;;5069301;28;20490;-51
2022/11/14 09:35:16;;;;;;;6.45;1.77;;;9.50;1.00;;;;;;5070512;28;20576;-52
2022/11/14 09:37:41;;;;;;;6.05;2.05;;;9.60;1.00;;;;;;5073562;28;20391;-52
2022/11/14 09:40:11;;;;;;;6.35;2.17;;;9.50;1.00;;;;;;5073679;28;20398;-53
2022/11/14 09:42:55;;;;;;;5.10;1.70;;;10.40;1.00;;;;;;5074011;28;20825;-53
2022/11/14 09:45:21;;;;;;;6.25;1.90;;;9.60;1.00;;;;;;5074476;28;20446;-50
2022/11/14 09:48:02;;;;;;;7.57;2.25;;;9.50;1.00;;;;;;5073464;28;20493;-52
2022/11/14 09:50:35;;;;;;;6.83;2.23;;;9.60;1.00;;;;;;5073732;28;20871;-52
2022/11/14 09:53:26;;;;;;;9.73;2.50;;;10.10;1.00;;;;;;5072992;28;20367;-53
2022/11/14 09:55:52;;;;;;;6.00;2.10;;;9.70;1.00;;;;;;5072797;28;20391;-53
2022/11/14 09:58:19;;;;;;;6.20;2.00;;;9.60;1.00;;;;;;5072704;28;20432;-52
2022/11/14 10:01:09;;;;;;;7.13;2.58;;;9.60;1.00;;;;;;5073238;28;20398;-52
2022/11/14 10:03:58;;;;;;;6.18;2.10;;;9.60;1.00;;;;;;5073316;28;20419;-54
2022/11/14 10:06:53;;;;;;;9.85;3.00;;;9.70;1.00;;;;;;5055864;28;20414;-52
2022/11/14 10:09:58;;;;;;;11.50;3.97;;;9.80;1.00;;;;;;5072389;28;20410;-52
2022/11/14 10:12:31;;;;;;;9.25;4.45;;;9.90;1.00;;;;;;4991215;28;20394;-53
2022/11/14 10:15:08;;;;;;;8.40;3.70;;;9.90;1.00;;;;;;4991081;28;20394;-59
2022/11/14 10:17:45;;;;;;;8.73;3.70;;;10.00;1.00;;;;;;5027567;28;20488;-53
2022/11/14 10:20:48;;;;;;;7.53;3.43;;;10.20;1.00;;;;;;5034643;28;20404;-53
2022/11/14 10:23:54;;;;;;;8.77;3.88;;;10.30;1.00;;;;;;5017991;28;20909;-53
2022/11/14 10:26:29;;;;;;;8.85;4.00;;;10.70;1.00;;;;;;5052259;28;20418;-50
2022/11/14 10:29:22;;;;;;;11.30;4.00;;;10.90;1.00;;;;;;5052621;28;20851;-50
2022/11/14 10:31:54;;;;;;;9.00;4.00;;;11.20;1.00;;;;;;5052664;28;20401;-50
2022/11/14 10:34:45;;;;;;;9.50;3.63;;;11.50;99.90;;;;;;5052286;28;20894;-51
2022/11/14 10:37:36;;;;;;;7.47;3.30;;;11.90;99.90;;;;;;5052014;28;20389;-50
2022/11/14 10:40:22;;;;;;;8.95;4.20;;;12.80;99.90;;;;;;5051442;28;20388;-50
2022/11/14 10:42:59;;;;;;;12.10;3.60;;;12.90;98.10;;;;;;5052484;28;20385;-50
2022/11/14 10:45:30;;;;;;;8.40;3.50;;;12.60;99.90;;;;;;5051982;28;20835;-50
2022/11/14 10:48:00;;;;;;;13.40;3.30;;;12.40;99.90;;;;;;5052033;28;20496;-57
2022/11/14 10:50:40;;;;;;;8.60;2.75;;;12.20;1.00;;;;;;5052632;28;20378;-50
2022/11/14 10:53:18;;;;;;;8.95;3.50;;;12.10;30.70;;;;;;5052167;28;20389;-50
2022/11/14 10:55:48;;;;;;;7.55;2.75;;;11.90;1.00;;;;;;5052377;28;20444;-50
2022/11/14 10:58:14;;;;;;;8.55;2.63;;;11.80;1.00;;;;;;5070075;28;20388;-50
2022/11/14 11:00:40;;;;;;;5.97;2.00;;;11.90;52.40;;;;;;5071562;28;20391;-50
2022/11/14 11:03:06;;;;;;;5.50;1.67;;;11.90;1.00;;;;;;5071151;28;20784;-50
2022/11/14 11:05:59;;;;;;;5.75;1.85;;;12.00;1.00;;;;;;5063506;28;20402;-50
2022/11/14 11:11:28;;;;;;;6.57;2.05;;;12.40;93.30;;;;;;5070772;28;20395;-50
2022/11/14 11:13:57;;;;;;;7.37;2.20;;;12.60;1.00;;;;;;5071476;28;20380;-50
2022/11/14 11:16:25;;;;;;;7.57;2.40;;;12.70;99.90;;;;;;5071139;28;20384;-50
2022/11/14 11:18:51;;;;;;;6.50;2.00;;;12.60;1.00;;;;;;5071879;28;20376;-52
2022/11/14 11:21:20;;;;;;;5.20;1.50;;;12.80;99.90;;;;;;5070192;28;20538;-50
2022/11/14 11:23:54;;;;;;;5.32;1.58;;;12.70;99.90;;;;;;5071152;28;20727;-50
2022/11/14 11:26:25;;;;;;;5.38;1.50;;;12.40;2.10;;;;;;5069826;28;20387;-50
2022/11/14 11:29:01;;;;;;;5.00;1.10;;;12.50;1.00;;;;;;5050468;28;20488;-50
2022/11/14 11:31:26;;;;;;;5.00;1.40;;;12.50;27.70;;;;;;5068785;28;20415;-50
2022/11/14 11:33:52;;;;;;;7.60;1.50;;;12.60;17.50;;;;;;5070588;28;20443;-50
2022/11/14 11:36:21;;;;;;;5.10;1.30;;;12.80;1.00;;;;;;5072020;28;21046;-50
2022/11/14 11:38:48;;;;;;;5.10;1.40;;;13.00;99.90;;;;;;5068449;28;20398;-50
2022/11/14 11:41:27;;;;;;;4.90;1.10;;;12.80;1.00;;;;;;5069992;28;20471;-50
2022/11/14 11:44:00;;;;;;;7.20;1.40;;;12.70;99.90;;;;;;5069377;28;20712;-50
2022/11/14 11:46:29;;;;;;;5.00;1.00;;;12.70;11.40;;;;;;5068023;28;20881;-50
2022/11/14 11:49:19;;;;;;;5.03;1.10;;;12.60;99.90;;;;;;5070688;28;20426;-51
2022/11/14 11:51:46;;;;;;;4.70;1.17;;;12.50;99.90;;;;;;5065740;28;20395;-50
2022/11/14 11:54:29;;;;;;;5.50;1.40;;;12.50;12.60;;;;;;5059211;28;20399;-54
2022/11/14 11:57:00;;;;;;;5.55;1.50;;;12.40;99.90;;;;;;5058324;28;20436;-51
2022/11/14 11:59:33;;;;;;;4.87;1.20;;;12.40;99.90;;;;;;5068406;28;20376;-52
2022/11/14 12:02:18;;;;;;;4.60;1.00;;;12.30;99.90;;;;;;5062898;28;20411;-57
2022/11/14 12:04:43;;;;;;;4.13;0.77;;;12.30;99.90;;;;;;5056898;28;20394;-53
2022/11/14 12:07:19;;;;;;;4.67;1.10;;;12.20;99.90;;;;;;5089950;28;20492;-51
2022/11/14 12:09:45;;;;;;;4.60;1.20;;;12.20;1.00;;;;;;5090121;28;20427;-52
2022/11/14 12:12:17;;;;;;;4.53;0.80;;;12.20;99.90;;;;;;5068865;28;20379;-52
2022/11/14 12:14:59;;;;;;;4.40;0.90;;;12.00;1.00;;;;;;5070184;28;20416;-52
2022/11/14 12:17:24;;;;;;;4.68;1.20;;;12.20;1.00;;;;;;5070566;28;20418;-51
2022/11/14 12:20:11;;;;;;;5.30;1.20;;;12.20;1.00;;;;;;5070551;28;20423;-51
2022/11/14 12:22:50;;;;;;;5.70;1.23;;;12.20;99.90;;;;;;5070477;28;20410;-51
2022/11/14 12:25:43;;;;;;;6.30;1.67;;;12.40;99.90;;;;;;5069644;28;20426;-51
2022/11/14 12:28:35;;;;;;;5.05;1.27;;;12.40;1.00;;;;;;5069088;28;20951;-51
2022/11/14 12:31:04;;;;;;;6.10;1.27;;;12.40;1.00;;;;;;5068524;28;20387;-56
2022/11/14 12:33:34;;;;;;;6.22;1.80;;;12.30;1.00;;;;;;5060167;28;20499;-53
2022/11/14 12:36:03;;;;;;;5.20;1.20;;;12.30;1.00;;;;;;5061217;28;20482;-57
2022/11/14 12:38:39;;;;;;;5.20;1.50;;;12.30;1.00;;;;;;5068059;28;20411;-54
2022/11/14 12:41:06;;;;;;;4.40;1.00;;;12.50;99.90;;;;;;5064490;28;20726;-51
2022/11/14 12:43:35;;;;;;;4.95;1.13;;;12.80;99.90;;;;;;5069766;28;20442;-51
2022/11/14 12:46:07;;;;;;;5.67;1.40;;;13.10;1.00;;;;;;5069177;28;20392;-57
2022/11/14 12:48:37;;;;;;;6.28;1.55;;;13.50;1.00;;;;;;5069936;28;20423;-51
2022/11/14 12:51:27;;;;;;;4.93;1.10;;;13.70;99.90;;;;;;5068999;28;20376;-52
2022/11/14 12:53:54;;;;;;;5.22;1.10;;;13.70;99.90;;;;;;5069781;28;20394;-50
2022/11/14 12:56:31;;;;;;;6.18;1.33;;;13.80;1.00;;;;;;5054978;28;21062;-51
2022/11/14 12:59:18;;;;;;;5.53;1.40;;;13.80;1.00;;;;;;5063885;28;20467;-51
2022/11/14 13:01:52;;;;;;;5.45;1.30;;;13.90;1.00;;;;;;5066563;28;20414;-51
2022/11/14 13:04:49;;;;;;;5.07;1.30;;;14.00;1.00;;;;;;5068148;28;21280;-51